Time;durP1;ratioP1;P1;durP2;ratioP2;P2;SDS_P1;SDS_P2;PMS_P1;PMS_P2;Temp;Humidity;BMP_temperature;BMP_pressure;BME280_temperature;BME280_humidity;BME280_pressure;Samples;Min_cycle;Max_cycle;Signal;HPM_P1;HPM_P2
2023/09/16 00:00:34;;;;;;;9.15;8.20;;;;;;;;;;5053344;28;20041;-60
2023/09/16 00:03:01;;;;;;;9.40;8.02;;;;;;;;;;5053477;28;20025;-60
2023/09/16 00:05:27;;;;;;;9.45;8.07;;;;;;;;;;5053492;28;20056;-60
2023/09/16 00:07:53;;;;;;;11.07;8.45;;;;;;;;;;5052928;28;20052;-60
2023/09/16 00:10:19;;;;;;;9.15;7.90;;;;;;;;;;5053267;28;20029;-60
2023/09/16 00:12:45;;;;;;;10.75;8.60;;;;;;;;;;5052920;28;20151;-60
2023/09/16 00:15:11;;;;;;;9.07;7.45;;;;;;;;;;5053364;28;20021;-60
2023/09/16 00:17:37;;;;;;;8.63;7.50;;;;;;;;;;5052796;28;20071;-60
2023/09/16 00:20:15;;;;;;;9.75;8.10;;;;;;;;;;5053341;28;20124;-60
2023/09/16 00:22:42;;;;;;;9.48;8.52;;;;;;;;;;5053357;28;20158;-60
2023/09/16 00:25:11;;;;;;;9.43;8.35;;;;;;;;;;5052779;28;20025;-60
2023/09/16 00:27:39;;;;;;;8.80;7.68;;;;;;;;;;5052701;28;20029;-60
2023/09/16 00:30:05;;;;;;;9.13;8.23;;;;;;;;;;5053517;28;20039;-60
2023/09/16 00:32:32;;;;;;;9.85;8.85;;;;;;;;;;5056284;28;20094;-60
2023/09/16 00:34:58;;;;;;;8.80;7.90;;;;;;;;;;5056475;28;20125;-60
2023/09/16 00:37:24;;;;;;;8.73;7.82;;;;;;;;;;5056871;28;20055;-60
2023/09/16 00:39:50;;;;;;;9.20;8.30;;;;;;;;;;5056654;28;20120;-60
2023/09/16 00:42:16;;;;;;;9.05;8.25;;;;;;;;;;5056113;28;20415;-60
2023/09/16 00:44:43;;;;;;;8.98;7.72;;;;;;;;;;5056049;28;20116;-60
2023/09/16 00:47:09;;;;;;;8.98;7.45;;;;;;;;;;5056050;28;20028;-60
2023/09/16 00:49:35;;;;;;;8.38;7.57;;;;;;;;;;5056209;28;20079;-60
2023/09/16 00:52:02;;;;;;;9.63;8.48;;;;;;;;;;5055695;28;20021;-60
2023/09/16 00:54:28;;;;;;;8.07;7.03;;;;;;;;;;5056663;28;20017;-60
2023/09/16 00:56:55;;;;;;;8.57;7.72;;;;;;;;;;5056309;28;20082;-60
2023/09/16 00:59:22;;;;;;;9.05;7.85;;;;;;;;;;5055419;28;20471;-60
2023/09/16 01:01:50;;;;;;;8.90;8.10;;;;;;;;;;5055719;28;20147;-60
2023/09/16 01:04:16;;;;;;;8.45;7.25;;;;;;;;;;5055670;28;20029;-60
2023/09/16 01:06:47;;;;;;;8.02;7.22;;;;;;;;;;5055587;28;20025;-60
2023/09/16 01:09:17;;;;;;;8.13;7.32;;;;;;;;;;5055847;28;20029;-60
2023/09/16 01:11:43;;;;;;;8.02;7.20;;;;;;;;;;5055755;28;20471;-60
2023/09/16 01:14:11;;;;;;;11.40;9.00;;;;;;;;;;5055127;28;20471;-60
2023/09/16 01:16:37;;;;;;;9.30;7.75;;;;;;;;;;5055120;28;20471;-60
2023/09/16 01:19:14;;;;;;;9.20;7.45;;;;;;;;;;5055331;28;20037;-60
2023/09/16 01:21:40;;;;;;;10.23;7.78;;;;;;;;;;5055735;28;20091;-60
2023/09/16 01:24:25;;;;;;;7.88;7.07;;;;;;;;;;5055566;28;20017;-60
2023/09/16 01:26:51;;;;;;;9.20;8.23;;;;;;;;;;5056134;28;20025;-60
2023/09/16 01:29:18;;;;;;;9.23;8.32;;;;;;;;;;5055289;28;20484;-60
2023/09/16 01:31:45;;;;;;;9.05;8.15;;;;;;;;;;5055250;28;20049;-60
2023/09/16 01:34:17;;;;;;;8.52;6.95;;;;;;;;;;5055106;28;20037;-60
2023/09/16 01:36:44;;;;;;;9.52;8.52;;;;;;;;;;5055115;28;20064;-60
2023/09/16 01:39:10;;;;;;;7.90;7.18;;;;;;;;;;5055495;28;20068;-60
2023/09/16 01:41:38;;;;;;;9.32;7.50;;;;;;;;;;5053860;28;20462;-60
2023/09/16 01:44:04;;;;;;;9.68;8.50;;;;;;;;;;5054906;28;20029;-60
2023/09/16 01:46:30;;;;;;;8.43;7.45;;;;;;;;;;5055699;28;20463;-60
2023/09/16 01:48:56;;;;;;;9.48;8.52;;;;;;;;;;5054718;28;20025;-60
2023/09/16 01:51:24;;;;;;;9.07;7.97;;;;;;;;;;5054518;28;20070;-60
2023/09/16 01:53:50;;;;;;;8.70;7.80;;;;;;;;;;5054721;28;20112;-60
2023/09/16 01:56:16;;;;;;;8.30;7.50;;;;;;;;;;5054666;28;20112;-60
2023/09/16 01:58:42;;;;;;;8.95;8.05;;;;;;;;;;5054625;28;20509;-60
2023/09/16 02:01:09;;;;;;;9.45;8.05;;;;;;;;;;5054594;28;20470;-60
2023/09/16 02:03:35;;;;;;;9.95;7.72;;;;;;;;;;5054520;28;20036;-60
2023/09/16 02:06:01;;;;;;;8.15;6.80;;;;;;;;;;5054457;28;20017;-60
2023/09/16 02:08:27;;;;;;;8.57;7.22;;;;;;;;;;5054503;28;20025;-60
2023/09/16 02:10:52;;;;;;;12.02;8.65;;;;;;;;;;5055034;28;20432;-60
2023/09/16 02:13:18;;;;;;;9.38;8.32;;;;;;;;;;5054354;28;20478;-60
2023/09/16 02:15:45;;;;;;;8.05;7.20;;;;;;;;;;5054838;28;20056;-60
2023/09/16 02:18:11;;;;;;;9.30;8.30;;;;;;;;;;5054204;28;20021;-60
2023/09/16 02:20:37;;;;;;;9.63;8.40;;;;;;;;;;5054508;28;20096;-60
2023/09/16 02:23:04;;;;;;;11.02;9.40;;;;;;;;;;5054506;28;20024;-60
2023/09/16 02:25:29;;;;;;;10.25;8.50;;;;;;;;;;5054205;28;20021;-60
2023/09/16 02:27:55;;;;;;;9.85;8.15;;;;;;;;;;5054056;28;20021;-60
2023/09/16 02:30:22;;;;;;;10.35;8.95;;;;;;;;;;5054559;28;20025;-60
2023/09/16 02:32:48;;;;;;;10.05;8.35;;;;;;;;;;5053967;28;20348;-60
2023/09/16 02:35:14;;;;;;;10.63;8.65;;;;;;;;;;5054005;28;20025;-60
2023/09/16 02:37:40;;;;;;;13.90;8.32;;;;;;;;;;5054096;28;20089;-60
2023/09/16 02:40:06;;;;;;;9.23;8.30;;;;;;;;;;5054296;28;20037;-60
2023/09/16 02:42:32;;;;;;;12.23;9.93;;;;;;;;;;5053877;28;20482;-60
2023/09/16 02:44:59;;;;;;;9.90;8.27;;;;;;;;;;5053667;28;20021;-60
2023/09/16 02:47:25;;;;;;;9.73;8.27;;;;;;;;;;5053730;28;20053;-60
2023/09/16 02:49:51;;;;;;;10.30;9.30;;;;;;;;;;5053954;28;20061;-60
2023/09/16 02:52:18;;;;;;;10.70;9.32;;;;;;;;;;5053657;28;20427;-60
2023/09/16 02:54:44;;;;;;;10.23;8.70;;;;;;;;;;5053541;28;20032;-60
2023/09/16 02:57:10;;;;;;;10.23;8.65;;;;;;;;;;5053285;28;20017;-60
2023/09/16 02:59:36;;;;;;;11.30;9.15;;;;;;;;;;5053590;28;20044;-60
2023/09/16 03:02:02;;;;;;;14.70;11.20;;;;;;;;;;5053483;28;20029;-60
2023/09/16 03:04:28;;;;;;;10.85;9.70;;;;;;;;;;5054052;28;20013;-60
2023/09/16 03:06:54;;;;;;;12.05;10.15;;;;;;;;;;5053508;28;20032;-60
2023/09/16 03:09:20;;;;;;;13.63;11.18;;;;;;;;;;5053863;28;20413;-60
2023/09/16 03:11:46;;;;;;;12.68;11.38;;;;;;;;;;5053955;28;20147;-60
2023/09/16 03:14:12;;;;;;;14.20;10.85;;;;;;;;;;5053482;28;20021;-60
2023/09/16 03:16:38;;;;;;;11.75;10.55;;;;;;;;;;5053343;28;20021;-60
2023/09/16 03:19:04;;;;;;;11.48;10.30;;;;;;;;;;5053357;28;20112;-60
2023/09/16 03:21:30;;;;;;;11.48;9.77;;;;;;;;;;5053457;28;20029;-60
2023/09/16 03:23:56;;;;;;;12.25;11.05;;;;;;;;;;5053626;28;20032;-60
2023/09/16 03:26:22;;;;;;;10.43;9.40;;;;;;;;;;5053517;28;20013;-60
2023/09/16 03:28:48;;;;;;;10.55;9.23;;;;;;;;;;5053755;28;20029;-60
2023/09/16 03:31:15;;;;;;;12.27;9.63;;;;;;;;;;5053821;28;20057;-60
2023/09/16 03:33:41;;;;;;;10.73;9.48;;;;;;;;;;5053785;28;20025;-60
2023/09/16 03:36:07;;;;;;;11.55;10.35;;;;;;;;;;5053316;28;20051;-60
2023/09/16 03:38:33;;;;;;;10.75;9.65;;;;;;;;;;5054049;28;20120;-60
2023/09/16 03:40:59;;;;;;;12.93;9.40;;;;;;;;;;5053709;28;20017;-60
2023/09/16 03:43:26;;;;;;;11.00;9.63;;;;;;;;;;5053136;28;20467;-60
2023/09/16 03:45:52;;;;;;;11.25;10.05;;;;;;;;;;5053601;28;20021;-60
2023/09/16 03:48:18;;;;;;;10.02;9.10;;;;;;;;;;5053049;28;20455;-60
2023/09/16 03:50:44;;;;;;;11.15;9.38;;;;;;;;;;5053365;28;20344;-60
2023/09/16 03:53:10;;;;;;;10.98;9.77;;;;;;;;;;5053502;28;20029;-60
2023/09/16 03:55:36;;;;;;;9.85;8.85;;;;;;;;;;5053508;28;20048;-60
2023/09/16 03:58:02;;;;;;;11.50;9.70;;;;;;;;;;5053274;28;20021;-60
2023/09/16 04:00:29;;;;;;;10.30;9.30;;;;;;;;;;5053337;28;20471;-60
2023/09/16 04:02:55;;;;;;;9.68;8.30;;;;;;;;;;5053039;28;20029;-60
2023/09/16 04:05:21;;;;;;;11.90;10.48;;;;;;;;;;5054769;28;20405;-60
2023/09/16 04:07:47;;;;;;;10.88;9.82;;;;;;;;;;5056771;28;20108;-60
2023/09/16 04:10:13;;;;;;;10.88;9.48;;;;;;;;;;5057547;28;20036;-60
2023/09/16 04:12:39;;;;;;;10.93;9.77;;;;;;;;;;5056772;28;20021;-60
2023/09/16 04:15:05;;;;;;;10.20;9.23;;;;;;;;;;5056856;28;20017;-60
2023/09/16 04:17:31;;;;;;;9.73;8.73;;;;;;;;;;5056566;28;20471;-60
2023/09/16 04:19:57;;;;;;;9.85;8.85;;;;;;;;;;5056865;28;20033;-60
2023/09/16 04:22:23;;;;;;;11.13;9.73;;;;;;;;;;5056518;28;20075;-60
2023/09/16 04:24:49;;;;;;;11.50;9.73;;;;;;;;;;5056431;28;20021;-60
2023/09/16 04:27:15;;;;;;;9.57;8.68;;;;;;;;;;5056338;28;20467;-60
2023/09/16 04:29:41;;;;;;;11.20;10.02;;;;;;;;;;5056975;28;20119;-60
2023/09/16 04:32:07;;;;;;;10.82;9.73;;;;;;;;;;5056334;28;20028;-60
2023/09/16 04:34:33;;;;;;;11.75;10.48;;;;;;;;;;5056191;28;20024;-60
2023/09/16 04:36:59;;;;;;;12.32;11.02;;;;;;;;;;5055798;28;20094;-60
2023/09/16 04:39:29;;;;;;;9.93;8.93;;;;;;;;;;5056149;28;20344;-60
2023/09/16 04:41:55;;;;;;;9.98;8.60;;;;;;;;;;5056099;28;20104;-60
2023/09/16 04:44:21;;;;;;;10.45;9.35;;;;;;;;;;5056574;28;20399;-60
2023/09/16 04:46:47;;;;;;;11.63;9.00;;;;;;;;;;5056538;28;20021;-60
2023/09/16 04:49:13;;;;;;;9.57;8.63;;;;;;;;;;5055880;28;20102;-60
2023/09/16 04:51:39;;;;;;;10.68;9.32;;;;;;;;;;5056205;28;20536;-60
2023/09/16 04:54:07;;;;;;;14.95;9.82;;;;;;;;;;5056400;28;20029;-60
2023/09/16 04:56:34;;;;;;;10.90;9.30;;;;;;;;;;5056559;28;20394;-60
2023/09/16 04:59:00;;;;;;;12.80;10.90;;;;;;;;;;5056039;28;20083;-60
2023/09/16 05:01:29;;;;;;;12.30;9.23;;;;;;;;;;5055554;28;20459;-60
2023/09/16 05:03:55;;;;;;;10.80;9.55;;;;;;;;;;5056299;28;20103;-60
2023/09/16 05:06:21;;;;;;;9.80;8.57;;;;;;;;;;5055843;28;20047;-60
2023/09/16 05:08:47;;;;;;;9.43;8.60;;;;;;;;;;5056031;28;20051;-60
2023/09/16 05:11:14;;;;;;;10.30;9.30;;;;;;;;;;5055759;28;20100;-60
2023/09/16 05:13:40;;;;;;;9.73;8.73;;;;;;;;;;5055605;28;20086;-60
2023/09/16 05:16:07;;;;;;;11.27;10.18;;;;;;;;;;5055210;28;20092;-59
2023/09/16 05:18:33;;;;;;;10.48;9.38;;;;;;;;;;5054794;28;20028;-58
2023/09/16 05:20:59;;;;;;;12.32;9.48;;;;;;;;;;5055482;28;20054;-59
2023/09/16 05:23:25;;;;;;;10.40;9.13;;;;;;;;;;5055607;28;20043;-59
2023/09/16 05:25:51;;;;;;;10.55;9.45;;;;;;;;;;5055658;28;20021;-59
2023/09/16 05:28:17;;;;;;;10.98;9.82;;;;;;;;;;5055793;28;20025;-59
2023/09/16 05:30:43;;;;;;;11.65;9.60;;;;;;;;;;5055290;28;20040;-59
2023/09/16 05:33:10;;;;;;;11.68;10.52;;;;;;;;;;5055218;28;20083;-59
2023/09/16 05:35:36;;;;;;;10.88;9.85;;;;;;;;;;5055182;28;20029;-58
2023/09/16 05:38:02;;;;;;;10.40;9.38;;;;;;;;;;5055699;28;20137;-58
2023/09/16 05:40:28;;;;;;;10.80;9.18;;;;;;;;;;5055271;28;20036;-59
2023/09/16 05:42:54;;;;;;;9.75;8.75;;;;;;;;;;5055334;28;20025;-58
2023/09/16 05:45:20;;;;;;;9.85;8.85;;;;;;;;;;5054701;28;20060;-59
2023/09/16 05:47:48;;;;;;;12.27;10.98;;;;;;;;;;5054935;28;20021;-58
2023/09/16 05:50:14;;;;;;;10.65;9.60;;;;;;;;;;5054949;28;20559;-59
2023/09/16 05:52:40;;;;;;;14.75;8.98;;;;;;;;;;5054533;28;20375;-58
2023/09/16 05:55:06;;;;;;;14.25;8.35;;;;;;;;;;5055394;28;20032;-58
2023/09/16 05:57:32;;;;;;;9.43;8.30;;;;;;;;;;5054549;28;20167;-59
2023/09/16 05:59:58;;;;;;;12.63;9.23;;;;;;;;;;5055033;28;20541;-58
2023/09/16 06:02:24;;;;;;;10.55;9.32;;;;;;;;;;5055119;28;20111;-59
2023/09/16 06:04:50;;;;;;;10.35;9.07;;;;;;;;;;5054474;28;20020;-59
2023/09/16 06:07:16;;;;;;;10.63;8.52;;;;;;;;;;5054474;28;20024;-58
2023/09/16 06:09:42;;;;;;;11.02;8.80;;;;;;;;;;5055051;28;20028;-58
2023/09/16 06:12:08;;;;;;;10.57;9.10;;;;;;;;;;5054415;28;20367;-59
2023/09/16 06:14:34;;;;;;;10.18;9.25;;;;;;;;;;5054211;28;20029;-59
2023/09/16 06:17:00;;;;;;;10.35;9.18;;;;;;;;;;5054823;28;20340;-58
2023/09/16 06:19:28;;;;;;;9.63;8.35;;;;;;;;;;5054911;28;20033;-59
2023/09/16 06:21:54;;;;;;;10.88;9.13;;;;;;;;;;5054307;28;20086;-59
2023/09/16 06:24:20;;;;;;;11.55;10.23;;;;;;;;;;5053992;28;20485;-60
2023/09/16 06:26:46;;;;;;;11.80;9.65;;;;;;;;;;5054294;28;20021;-61
2023/09/16 06:29:12;;;;;;;11.77;10.68;;;;;;;;;;5054432;28;20033;-59
2023/09/16 06:31:38;;;;;;;14.13;11.02;;;;;;;;;;5054151;28;20032;-59
2023/09/16 06:34:05;;;;;;;12.45;11.10;;;;;;;;;;5054116;28;20470;-60
2023/09/16 06:36:31;;;;;;;10.82;9.63;;;;;;;;;;5053950;28;20049;-61
2023/09/16 06:38:57;;;;;;;12.63;11.30;;;;;;;;;;5053994;28;20043;-61
2023/09/16 06:41:23;;;;;;;12.77;10.80;;;;;;;;;;5054261;28;20466;-61
2023/09/16 06:43:49;;;;;;;13.05;10.98;;;;;;;;;;5053856;28;20022;-59
2023/09/16 06:46:15;;;;;;;11.25;10.25;;;;;;;;;;5054113;28;20029;-58
2023/09/16 06:48:41;;;;;;;12.65;10.88;;;;;;;;;;5053986;28;20031;-58
2023/09/16 06:51:07;;;;;;;13.93;12.05;;;;;;;;;;5054635;28;20350;-59
2023/09/16 06:53:33;;;;;;;11.90;10.65;;;;;;;;;;5053734;28;20377;-59
2023/09/16 06:55:59;;;;;;;12.57;11.27;;;;;;;;;;5053742;28;20021;-58
2023/09/16 06:58:25;;;;;;;13.05;11.02;;;;;;;;;;5054171;28;20052;-59
2023/09/16 07:00:51;;;;;;;12.82;11.52;;;;;;;;;;5054511;28;20060;-59
2023/09/16 07:03:18;;;;;;;13.60;11.93;;;;;;;;;;5053527;28;20023;-58
2023/09/16 07:05:47;;;;;;;12.27;10.95;;;;;;;;;;5053665;28;20029;-59
2023/09/16 07:08:14;;;;;;;11.52;10.23;;;;;;;;;;5054155;28;20378;-59
2023/09/16 07:10:40;;;;;;;11.68;10.50;;;;;;;;;;5054413;28;20025;-58
2023/09/16 07:13:06;;;;;;;11.55;10.35;;;;;;;;;;5053583;28;20028;-58
2023/09/16 07:15:32;;;;;;;13.52;10.90;;;;;;;;;;5054062;28;20025;-59
2023/09/16 07:17:58;;;;;;;11.55;10.38;;;;;;;;;;5053819;28;20059;-60
2023/09/16 07:20:23;;;;;;;14.65;11.85;;;;;;;;;;5053649;28;20033;-59
2023/09/16 07:22:51;;;;;;;14.05;9.95;;;;;;;;;;5053761;28;20044;-59
2023/09/16 07:25:17;;;;;;;11.90;10.10;;;;;;;;;;5053914;28;20036;-59
2023/09/16 07:27:43;;;;;;;12.30;10.48;;;;;;;;;;5053745;28;20025;-60
2023/09/16 07:30:09;;;;;;;11.35;9.85;;;;;;;;;;5053718;28;20047;-59
2023/09/16 07:32:36;;;;;;;12.93;10.63;;;;;;;;;;5053338;28;20028;-59
2023/09/16 07:35:02;;;;;;;10.30;9.25;;;;;;;;;;5053343;28;20044;-59
2023/09/16 07:37:28;;;;;;;12.23;10.98;;;;;;;;;;5052832;28;20048;-59
2023/09/16 07:39:54;;;;;;;11.90;10.32;;;;;;;;;;5054215;28;20032;-59
2023/09/16 07:42:20;;;;;;;12.98;8.98;;;;;;;;;;5057524;28;20017;-60
2023/09/16 07:44:46;;;;;;;11.23;10.00;;;;;;;;;;5057548;28;20021;-59
2023/09/16 07:47:12;;;;;;;18.95;9.77;;;;;;;;;;5057493;28;20021;-60
2023/09/16 07:49:38;;;;;;;11.38;9.10;;;;;;;;;;5057590;28;20490;-59
2023/09/16 07:52:04;;;;;;;11.90;8.98;;;;;;;;;;5057190;28;20021;-59
2023/09/16 07:54:30;;;;;;;12.77;9.57;;;;;;;;;;5057193;28;20490;-59
2023/09/16 07:56:56;;;;;;;14.57;8.75;;;;;;;;;;5057081;28;20371;-59
2023/09/16 07:59:22;;;;;;;12.45;9.82;;;;;;;;;;5057075;28;20530;-59
2023/09/16 08:01:48;;;;;;;10.95;9.38;;;;;;;;;;5057113;28;20031;-59
2023/09/16 08:04:14;;;;;;;10.65;9.55;;;;;;;;;;5057261;28;20032;-59
2023/09/16 08:06:40;;;;;;;12.50;9.48;;;;;;;;;;5056915;28;20017;-59
2023/09/16 08:09:06;;;;;;;9.73;8.75;;;;;;;;;;5056833;28;20061;-59
2023/09/16 08:11:32;;;;;;;8.52;7.68;;;;;;;;;;5056749;28;20021;-59
2023/09/16 08:13:58;;;;;;;9.60;8.60;;;;;;;;;;5056800;28;20025;-59
2023/09/16 08:16:24;;;;;;;9.50;7.72;;;;;;;;;;5056504;28;20102;-59
2023/09/16 08:18:50;;;;;;;9.68;8.27;;;;;;;;;;5056913;28;20044;-59
2023/09/16 08:21:16;;;;;;;9.25;8.25;;;;;;;;;;5056915;28;20025;-59
2023/09/16 08:23:42;;;;;;;8.23;7.15;;;;;;;;;;5057080;28;20025;-59
2023/09/16 08:26:08;;;;;;;8.55;7.35;;;;;;;;;;5056787;28;20032;-59
2023/09/16 08:28:35;;;;;;;7.90;7.10;;;;;;;;;;5056439;28;20025;-59
2023/09/16 08:31:02;;;;;;;10.85;8.48;;;;;;;;;;5057034;28;20045;-59
2023/09/16 08:33:28;;;;;;;8.95;7.80;;;;;;;;;;5056442;28;20075;-59
2023/09/16 08:35:53;;;;;;;9.00;8.10;;;;;;;;;;5056182;28;20482;-59
2023/09/16 08:38:19;;;;;;;8.02;7.22;;;;;;;;;;5056375;28;20465;-59
2023/09/16 08:40:47;;;;;;;7.78;6.60;;;;;;;;;;5056644;28;20036;-59
2023/09/16 08:43:19;;;;;;;7.97;6.95;;;;;;;;;;5056072;28;20029;-59
2023/09/16 08:45:46;;;;;;;8.15;6.47;;;;;;;;;;5056621;28;20022;-59
2023/09/16 08:48:20;;;;;;;8.80;7.53;;;;;;;;;;5056688;28;20029;-59
2023/09/16 08:50:46;;;;;;;8.63;6.50;;;;;;;;;;5055468;28;20021;-59
2023/09/16 08:53:13;;;;;;;6.57;5.97;;;;;;;;;;5056536;28;20021;-59
2023/09/16 08:55:42;;;;;;;7.35;5.95;;;;;;;;;;5056521;28;20017;-59
2023/09/16 08:58:09;;;;;;;6.88;6.18;;;;;;;;;;5056421;28;20477;-59
2023/09/16 09:00:39;;;;;;;6.82;6.18;;;;;;;;;;5055858;28;20057;-59
2023/09/16 09:03:05;;;;;;;9.32;6.97;;;;;;;;;;5056373;28;20033;-59
2023/09/16 09:05:33;;;;;;;7.40;6.57;;;;;;;;;;5056372;28;20035;-59
2023/09/16 09:07:58;;;;;;;5.82;5.15;;;;;;;;;;5055804;28;20021;-59
2023/09/16 09:10:24;;;;;;;7.00;6.22;;;;;;;;;;5056086;28;20371;-59
2023/09/16 09:12:51;;;;;;;5.20;4.70;;;;;;;;;;5055732;28;20021;-59
2023/09/16 09:15:17;;;;;;;5.78;5.05;;;;;;;;;;5056184;28;20484;-59
2023/09/16 09:17:47;;;;;;;5.88;4.93;;;;;;;;;;5055588;28;20049;-59
2023/09/16 09:20:13;;;;;;;;;;;;;;;;;;5056241;28;20033;-59
2023/09/16 09:22:40;;;;;;;5.20;4.70;;;;;;;;;;5055477;28;19904;-59
2023/09/16 09:25:06;;;;;;;5.13;4.63;;;;;;;;;;5055898;28;20029;-59
2023/09/16 09:27:32;;;;;;;6.00;5.40;;;;;;;;;;5055394;28;20025;-59
2023/09/16 09:29:58;;;;;;;5.85;4.82;;;;;;;;;;5055761;28;20025;-59
2023/09/16 09:32:29;;;;;;;7.03;4.88;;;;;;;;;;5055988;28;20029;-59
2023/09/16 09:34:55;;;;;;;4.97;4.43;;;;;;;;;;5055830;28;20449;-59
2023/09/16 09:37:21;;;;;;;6.55;5.20;;;;;;;;;;5056138;28;20049;-59
2023/09/16 09:40:04;;;;;;;5.70;4.45;;;;;;;;;;5055683;28;20451;-59
2023/09/16 09:42:30;;;;;;;5.35;4.70;;;;;;;;;;5055516;28;20416;-61
2023/09/16 09:45:02;;;;;;;5.88;5.28;;;;;;;;;;5055678;28;20049;-60
2023/09/16 09:47:28;;;;;;;5.70;4.65;;;;;;;;;;5055024;28;20025;-59
2023/09/16 09:49:55;;;;;;;6.25;4.97;;;;;;;;;;5054768;28;20399;-59
2023/09/16 09:52:21;;;;;;;5.55;4.97;;;;;;;;;;5055455;28;20394;-59
2023/09/16 09:54:47;;;;;;;5.10;4.57;;;;;;;;;;5055362;28;20104;-59
2023/09/16 09:57:13;;;;;;;6.70;4.85;;;;;;;;;;5054417;28;20471;-59
2023/09/16 09:59:41;;;;;;;5.97;5.38;;;;;;;;;;5055340;28;20123;-59
2023/09/16 10:02:07;;;;;;;5.05;4.50;;;;;;;;;;5054250;28;20474;-59
2023/09/16 10:04:33;;;;;;;4.75;4.20;;;;;;;;;;5054803;28;20033;-59
2023/09/16 10:07:00;;;;;;;5.63;4.57;;;;;;;;;;5055098;28;20363;-59
2023/09/16 10:09:26;;;;;;;4.60;4.20;;;;;;;;;;5054564;28;20040;-59
2023/09/16 10:11:52;;;;;;;4.78;3.67;;;;;;;;;;5054995;28;20032;-59
2023/09/16 10:14:19;;;;;;;4.60;3.83;;;;;;;;;;5054483;28;20033;-59
2023/09/16 10:16:47;;;;;;;3.58;3.05;;;;;;;;;;5055209;28;20130;-59
2023/09/16 10:19:13;;;;;;;7.90;3.63;;;;;;;;;;5054947;28;20344;-59
2023/09/16 10:21:40;;;;;;;4.47;3.65;;;;;;;;;;5054274;28;20017;-59
2023/09/16 10:24:08;;;;;;;4.18;3.75;;;;;;;;;;5054808;28;20119;-59
2023/09/16 10:26:34;;;;;;;3.72;3.13;;;;;;;;;;5054225;28;20029;-59
2023/09/16 10:29:00;;;;;;;3.85;3.05;;;;;;;;;;5055124;28;20031;-59
2023/09/16 10:31:28;;;;;;;4.35;3.17;;;;;;;;;;5054179;28;20021;-59
2023/09/16 10:33:54;;;;;;;3.60;2.95;;;;;;;;;;5054454;28;20033;-59
2023/09/16 10:36:24;;;;;;;3.88;3.10;;;;;;;;;;5053840;28;20063;-59
2023/09/16 10:38:51;;;;;;;3.83;2.95;;;;;;;;;;5053939;28;20371;-59
2023/09/16 10:41:17;;;;;;;4.32;2.38;;;;;;;;;;5053997;28;20021;-59
2023/09/16 10:43:44;;;;;;;2.85;2.22;;;;;;;;;;5054245;28;20447;-59
2023/09/16 10:46:11;;;;;;;3.30;2.38;;;;;;;;;;5054392;28;20029;-59
2023/09/16 10:48:37;;;;;;;3.28;1.83;;;;;;;;;;5053859;28;20029;-59
2023/09/16 10:51:06;;;;;;;4.13;2.22;;;;;;;;;;5054500;28;20018;-59
2023/09/16 10:53:36;;;;;;;3.17;2.08;;;;;;;;;;5054133;28;20032;-59
2023/09/16 10:56:16;;;;;;;2.55;1.85;;;;;;;;;;5054360;28;20033;-59
2023/09/16 10:58:42;;;;;;;2.45;1.80;;;;;;;;;;5054278;28;20359;-59
2023/09/16 11:01:09;;;;;;;3.55;2.05;;;;;;;;;;5054238;28;20029;-59
2023/09/16 11:03:40;;;;;;;3.97;2.03;;;;;;;;;;5053732;28;20351;-59
2023/09/16 11:06:06;;;;;;;2.13;1.40;;;;;;;;;;5054219;28;20025;-59
2023/09/16 11:08:32;;;;;;;2.45;1.77;;;;;;;;;;5053732;28;20021;-59
2023/09/16 11:10:58;;;;;;;2.33;1.48;;;;;;;;;;5054156;28;20021;-59
2023/09/16 11:13:27;;;;;;;2.00;1.40;;;;;;;;;;5053604;28;20059;-61
2023/09/16 11:15:57;;;;;;;2.83;1.50;;;;;;;;;;5053766;28;20071;-59
2023/09/16 11:18:23;;;;;;;2.28;1.75;;;;;;;;;;5053491;28;20036;-59
2023/09/16 11:20:49;;;;;;;2.92;2.08;;;;;;;;;;5054012;28;20033;-59
2023/09/16 11:23:15;;;;;;;4.65;2.42;;;;;;;;;;5053568;28;20075;-59
2023/09/16 11:25:41;;;;;;;2.97;2.38;;;;;;;;;;5054016;28;20017;-59
2023/09/16 11:28:09;;;;;;;3.20;2.60;;;;;;;;;;5053356;28;20028;-59
2023/09/16 11:30:36;;;;;;;2.80;2.08;;;;;;;;;;5053964;28;20048;-59
2023/09/16 11:33:04;;;;;;;2.95;2.40;;;;;;;;;;5053719;28;20021;-59
2023/09/16 11:35:34;;;;;;;2.88;1.85;;;;;;;;;;5054135;28;20017;-59
2023/09/16 11:38:00;;;;;;;2.33;1.30;;;;;;;;;;5053919;28;20048;-59
2023/09/16 11:40:33;;;;;;;3.30;1.40;;;;;;;;;;5053706;28;20565;-59
2023/09/16 11:42:59;;;;;;;1.52;0.93;;;;;;;;;;5053364;28;20040;-59
2023/09/16 11:45:26;;;;;;;3.42;2.25;;;;;;;;;;5052987;28;20029;-59
2023/09/16 11:47:52;;;;;;;4.10;2.90;;;;;;;;;;5053118;28;20033;-59
2023/09/16 11:50:22;;;;;;;4.70;3.35;;;;;;;;;;5053727;28;20032;-59
2023/09/16 11:52:48;;;;;;;4.60;2.72;;;;;;;;;;5053321;28;20087;-59
2023/09/16 11:55:18;;;;;;;4.45;3.25;;;;;;;;;;5053026;28;20029;-59
2023/09/16 11:57:48;;;;;;;3.23;2.50;;;;;;;;;;5053027;28;20037;-59
2023/09/16 12:00:14;;;;;;;4.43;3.10;;;;;;;;;;5053200;28;20287;-59
2023/09/16 12:02:41;;;;;;;4.30;2.72;;;;;;;;;;5052994;28;20390;-59
2023/09/16 12:05:07;;;;;;;4.85;2.40;;;;;;;;;;5053546;28;20048;-59
2023/09/16 12:07:35;;;;;;;3.10;2.53;;;;;;;;;;5053518;28;20045;-59
2023/09/16 12:10:02;;;;;;;3.60;3.08;;;;;;;;;;5053037;28;20127;-59
2023/09/16 12:12:28;;;;;;;2.78;2.00;;;;;;;;;;5052776;28;20116;-59
2023/09/16 12:14:54;;;;;;;3.05;2.38;;;;;;;;;;5053442;28;20040;-59
2023/09/16 12:17:20;;;;;;;3.80;2.33;;;;;;;;;;5052807;28;20029;-59
2023/09/16 12:19:50;;;;;;;2.70;2.30;;;;;;;;;;5053261;28;20482;-59
2023/09/16 12:22:16;;;;;;;5.03;3.28;;;;;;;;;;5052699;28;20025;-59
2023/09/16 12:24:42;;;;;;;3.40;2.92;;;;;;;;;;5052522;28;20471;-59
2023/09/16 12:27:09;;;;;;;3.35;2.47;;;;;;;;;;5055175;28;20021;-60
2023/09/16 12:29:35;;;;;;;3.28;2.83;;;;;;;;;;5056958;28;20090;-59
2023/09/16 12:32:08;;;;;;;3.40;2.83;;;;;;;;;;5056197;28;20017;-59
2023/09/16 12:34:34;;;;;;;2.85;2.00;;;;;;;;;;5056174;28;20100;-59
2023/09/16 12:37:00;;;;;;;3.08;2.17;;;;;;;;;;5055952;28;20045;-59
2023/09/16 12:39:26;;;;;;;5.93;2.58;;;;;;;;;;5056224;28;20472;-59
2023/09/16 12:41:53;;;;;;;3.33;2.22;;;;;;;;;;5055943;28;20569;-59
2023/09/16 12:44:19;;;;;;;3.45;2.47;;;;;;;;;;5055937;28;20039;-59
2023/09/16 12:46:45;;;;;;;2.50;1.85;;;;;;;;;;5055778;28;20122;-60
2023/09/16 12:49:11;;;;;;;4.10;2.17;;;;;;;;;;5056892;28;20332;-60
2023/09/16 12:51:38;;;;;;;3.72;1.95;;;;;;;;;;5056363;28;20164;-59
2023/09/16 12:54:05;;;;;;;3.08;2.05;;;;;;;;;;5056857;28;20029;-59
2023/09/16 12:56:34;;;;;;;2.95;2.20;;;;;;;;;;5056045;28;20067;-59
2023/09/16 12:59:01;;;;;;;3.45;2.50;;;;;;;;;;5055872;28;20094;-59
2023/09/16 13:01:27;;;;;;;3.05;2.00;;;;;;;;;;5055892;28;20049;-59
2023/09/16 13:03:53;;;;;;;3.05;2.35;;;;;;;;;;5056380;28;20075;-59
2023/09/16 13:06:18;;;;;;;2.72;2.20;;;;;;;;;;5055650;28;20378;-59
2023/09/16 13:08:44;;;;;;;3.60;2.38;;;;;;;;;;5056095;28;20032;-59
2023/09/16 13:11:11;;;;;;;3.70;2.25;;;;;;;;;;5056530;28;20027;-59
2023/09/16 13:13:37;;;;;;;2.50;1.80;;;;;;;;;;5056242;28;20021;-60
2023/09/16 13:16:03;;;;;;;3.05;2.47;;;;;;;;;;5055939;28;20367;-60
2023/09/16 13:18:29;;;;;;;2.88;2.50;;;;;;;;;;5055687;28;20079;-59
2023/09/16 13:20:56;;;;;;;3.58;2.55;;;;;;;;;;5056354;28;20033;-60
2023/09/16 13:23:25;;;;;;;3.13;2.17;;;;;;;;;;5055819;28;20055;-60
2023/09/16 13:26:10;;;;;;;3.00;1.93;;;;;;;;;;5055496;28;20028;-60
2023/09/16 13:28:37;;;;;;;3.60;2.25;;;;;;;;;;5056297;28;20044;-59
2023/09/16 13:31:03;;;;;;;3.22;2.03;;;;;;;;;;5055985;28;20029;-60
2023/09/16 13:33:42;;;;;;;3.50;2.15;;;;;;;;;;5055331;28;20017;-60
2023/09/16 13:36:08;;;;;;;2.53;1.65;;;;;;;;;;5055292;28;20108;-59
2023/09/16 13:38:34;;;;;;;2.47;1.85;;;;;;;;;;5054526;28;20069;-59
2023/09/16 13:41:00;;;;;;;3.03;2.10;;;;;;;;;;5055511;28;20446;-60
2023/09/16 13:43:26;;;;;;;3.83;2.60;;;;;;;;;;5054894;28;20052;-60
2023/09/16 13:45:52;;;;;;;2.95;1.85;;;;;;;;;;5055049;28;20063;-60
2023/09/16 13:48:21;;;;;;;2.63;2.05;;;;;;;;;;5055139;28;20021;-59
2023/09/16 13:50:48;;;;;;;2.58;1.90;;;;;;;;;;5055071;28;20029;-61
2023/09/16 13:53:18;;;;;;;2.78;1.77;;;;;;;;;;5054989;28;20059;-59
2023/09/16 13:55:44;;;;;;;;;;;;;;;;;;5055919;28;20367;-59
2023/09/16 13:58:10;;;;;;;2.67;1.70;;;;;;;;;;5054936;28;19905;-60
2023/09/16 14:00:36;;;;;;;2.45;1.77;;;;;;;;;;5055066;28;20033;-60
2023/09/16 14:03:03;;;;;;;2.90;1.60;;;;;;;;;;5055589;28;20021;-60
2023/09/16 14:05:29;;;;;;;2.65;1.65;;;;;;;;;;5055039;28;20029;-60
2023/09/16 14:07:56;;;;;;;2.38;1.65;;;;;;;;;;5054692;28;20398;-60
2023/09/16 14:10:24;;;;;;;2.20;1.20;;;;;;;;;;5054626;28;20029;-60
2023/09/16 14:12:51;;;;;;;2.53;1.73;;;;;;;;;;5054838;28;20429;-60
2023/09/16 14:15:17;;;;;;;2.38;2.05;;;;;;;;;;5054352;28;20029;-59
2023/09/16 14:17:42;;;;;;;2.53;1.63;;;;;;;;;;5054442;28;20017;-60
2023/09/16 14:20:09;;;;;;;2.80;1.60;;;;;;;;;;5054420;28;20032;-60
2023/09/16 14:22:34;;;;;;;2.20;1.40;;;;;;;;;;5054907;28;20367;-60
2023/09/16 14:25:00;;;;;;;2.60;1.52;;;;;;;;;;5053958;28;20021;-60
2023/09/16 14:27:26;;;;;;;2.50;1.63;;;;;;;;;;5054326;28;20040;-59
2023/09/16 14:29:52;;;;;;;2.20;1.20;;;;;;;;;;5054830;28;20025;-60
2023/09/16 14:32:18;;;;;;;1.77;1.40;;;;;;;;;;5054313;28;20082;-60
2023/09/16 14:34:44;;;;;;;2.42;1.80;;;;;;;;;;5054537;28;20021;-60